Zurich, Switzerland
Current Conditions -  °F | °C
As of 2:20 PM on Thursday 18 Dec 2014 (Local Time) from LSZH Reporting Station
Rain Showers Rain Showers  
Wind Chill: 44°   Ceiling: 3500
Heat Index: 48°   Visibility: 6mi
Dew Point: 45°   Wind: 10mph
Humidity: 87%   Direction: 190°S
Pressure: 30.12"   Gusts: NA
Location:  47.38°N, 8.54°E
Report Text: LSZH 181320Z 19009KT 150V230 9999 VCSH FEW011 SCT013 BKN035 09/07 Q1020 TEMPO RA
Loading
Personal Weather Stations






























Interactive Weather Map New forecast layout! Learn more

10-Day Weather Forecast

Advertisements
Track Severe Weather on mobile